Time;durP1;ratioP1;P1;durP2;ratioP2;P2;SDS_P1;SDS_P2;PMS_P1;PMS_P2;Temp;Humidity;BMP_temperature;BMP_pressure;BME280_temperature;BME280_humidity;BME280_pressure;Samples;Min_cycle;Max_cycle;Signal;HPM_P1;HPM_P2
2022/01/08 00:02:20;;;;;;;3.50;3.33;;;0.50;99.90;;;;;;5074866;28;20263;-74
2022/01/08 00:04:47;;;;;;;3.90;3.70;;;0.50;99.90;;;;;;5074912;28;20707;-74
2022/01/08 00:07:14;;;;;;;3.00;2.90;;;0.40;99.90;;;;;;5074825;28;20650;-70
2022/01/08 00:09:41;;;;;;;3.45;3.22;;;0.40;99.90;;;;;;5075096;28;20226;-70
2022/01/08 00:12:09;;;;;;;3.10;2.85;;;0.50;99.90;;;;;;5075020;28;20231;-72
2022/01/08 00:14:36;;;;;;;4.47;4.15;;;0.50;99.90;;;;;;5074707;28;20634;-72
2022/01/08 00:17:04;;;;;;;3.85;3.60;;;0.50;99.90;;;;;;5074915;28;20269;-72
2022/01/08 00:19:30;;;;;;;3.67;3.47;;;0.50;99.90;;;;;;5074750;28;20655;-72
2022/01/08 00:21:57;;;;;;;3.63;3.33;;;0.50;99.90;;;;;;5074859;28;20204;-72
2022/01/08 00:24:24;;;;;;;3.15;3.05;;;0.60;99.90;;;;;;5074941;28;20284;-72
2022/01/08 00:26:51;;;;;;;3.40;3.20;;;0.60;99.90;;;;;;5074794;28;20286;-72
2022/01/08 00:29:19;;;;;;;2.95;2.80;;;0.70;99.90;;;;;;5074625;28;20646;-71
2022/01/08 00:31:46;;;;;;;3.20;3.08;;;0.70;99.90;;;;;;5074661;28;20230;-72
2022/01/08 00:34:13;;;;;;;3.47;3.03;;;0.60;99.90;;;;;;5074567;28;20311;-72
2022/01/08 00:36:40;;;;;;;3.67;3.47;;;0.70;99.90;;;;;;5073543;28;20739;-73
2022/01/08 00:39:07;;;;;;;3.28;3.15;;;0.70;99.90;;;;;;5074179;28;20239;-71
2022/01/08 00:41:34;;;;;;;4.38;3.42;;;0.60;99.90;;;;;;5074139;28;20675;-71
2022/01/08 00:44:00;;;;;;;3.28;3.10;;;0.60;99.90;;;;;;5074025;28;20651;-73
2022/01/08 00:46:29;;;;;;;3.40;3.10;;;0.70;99.90;;;;;;5074062;28;20246;-73
2022/01/08 00:48:55;;;;;;;3.60;3.30;;;0.70;99.90;;;;;;5073906;28;20579;-72
2022/01/08 00:51:22;;;;;;;2.95;2.85;;;0.70;99.90;;;;;;5074005;28;20231;-72
2022/01/08 00:53:49;;;;;;;2.90;2.80;;;0.70;99.90;;;;;;5073845;28;20718;-72
2022/01/08 00:56:16;;;;;;;2.75;2.60;;;0.70;99.90;;;;;;5074166;28;20204;-72
2022/01/08 00:58:43;;;;;;;2.83;2.65;;;0.70;99.90;;;;;;5074056;28;20242;-72
2022/01/08 01:01:10;;;;;;;2.58;2.47;;;0.70;99.90;;;;;;5073753;28;20291;-72
2022/01/08 01:03:38;;;;;;;2.63;2.42;;;0.70;99.90;;;;;;5073610;28;20220;-72
2022/01/08 01:06:06;;;;;;;2.85;2.67;;;0.70;99.90;;;;;;5073647;28;20675;-72
2022/01/08 01:08:33;;;;;;;2.53;2.42;;;0.70;99.90;;;;;;5073679;28;20713;-72
2022/01/08 01:11:00;;;;;;;2.60;2.40;;;0.70;99.90;;;;;;5073927;28;20291;-72
2022/01/08 06:19:00;;;;;;;0.70;0.70;;;0.80;99.90;;;;;;5857671;22;20454;-67
2022/01/08 06:21:27;;;;;;;0.90;0.90;;;0.80;99.90;;;;;;5072867;28;20303;-67
2022/01/08 06:23:54;;;;;;;0.60;0.60;;;0.80;99.90;;;;;;5073014;28;20210;-67
2022/01/08 06:26:21;;;;;;;0.50;0.50;;;0.70;99.90;;;;;;5072851;28;20304;-67
2022/01/08 06:28:49;;;;;;;0.60;0.60;;;0.60;99.90;;;;;;5072660;28;20310;-67
2022/01/08 06:31:16;;;;;;;0.63;0.63;;;0.60;99.90;;;;;;5073089;28;20227;-67
2022/01/08 06:33:43;;;;;;;0.50;0.50;;;0.60;99.90;;;;;;5073647;28;20202;-67
2022/01/08 06:36:11;;;;;;;0.65;0.65;;;0.60;99.90;;;;;;5075540;28;20207;-67
2022/01/08 06:38:38;;;;;;;0.70;0.70;;;0.50;99.90;;;;;;5076461;28;20251;-67
2022/01/08 06:41:05;;;;;;;0.70;0.70;;;0.50;99.90;;;;;;5076502;28;20291;-66
2022/01/08 06:43:31;;;;;;;0.80;0.80;;;0.50;99.90;;;;;;5076736;28;20560;-66
2022/01/08 06:45:58;;;;;;;0.65;0.65;;;0.40;99.90;;;;;;5076329;28;20206;-66
2022/01/08 06:48:25;;;;;;;0.70;0.70;;;0.40;99.90;;;;;;5076220;28;20206;-66
2022/01/08 06:50:52;;;;;;;0.68;0.68;;;0.40;99.90;;;;;;5076635;28;20206;-67
2022/01/08 06:53:20;;;;;;;0.60;0.60;;;0.40;99.90;;;;;;5076600;28;20206;-67
2022/01/08 06:55:47;;;;;;;0.60;0.60;;;0.50;99.90;;;;;;5076576;28;20202;-67
2022/01/08 06:58:14;;;;;;;0.80;0.80;;;0.40;99.90;;;;;;5076099;28;20572;-67
2022/01/08 07:00:41;;;;;;;0.60;0.60;;;0.40;99.90;;;;;;5076420;28;20286;-67
2022/01/08 07:03:11;;;;;;;0.70;0.70;;;0.40;99.90;;;;;;5076440;28;20250;-67
2022/01/08 07:05:38;;;;;;;0.80;0.80;;;0.40;99.90;;;;;;5076398;28;20257;-67
2022/01/08 07:08:05;;;;;;;0.65;0.65;;;0.30;99.90;;;;;;5076592;28;20210;-67
2022/01/08 07:10:34;;;;;;;0.70;0.70;;;0.30;99.90;;;;;;5076158;28;20231;-67
2022/01/08 07:13:01;;;;;;;0.68;0.68;;;0.30;99.90;;;;;;5075912;28;20200;-67
2022/01/08 07:15:28;;;;;;;0.63;0.63;;;0.20;99.90;;;;;;5076224;28;20199;-67
2022/01/08 07:17:55;;;;;;;1.52;0.80;;;0.30;99.90;;;;;;5076196;28;20207;-67
2022/01/08 07:20:21;;;;;;;0.70;0.70;;;0.20;99.90;;;;;;5075564;28;20714;-67
2022/01/08 07:22:49;;;;;;;0.70;0.70;;;0.20;99.90;;;;;;5076082;28;20204;-67
2022/01/08 07:25:16;;;;;;;0.70;0.70;;;0.20;99.90;;;;;;5075956;28;20205;-67
2022/01/08 07:27:44;;;;;;;0.80;0.80;;;0.20;99.90;;;;;;5075898;28;20203;-67
2022/01/08 07:30:12;;;;;;;0.80;0.80;;;0.20;99.90;;;;;;5075756;28;20414;-67
2022/01/08 07:32:42;;;;;;;0.85;0.85;;;0.20;99.90;;;;;;5075421;28;20265;-67
2022/01/08 07:35:11;;;;;;;0.85;0.85;;;0.20;99.90;;;;;;5075714;28;20207;-67
2022/01/08 07:37:38;;;;;;;0.70;0.70;;;0.30;99.90;;;;;;5075666;28;20200;-68
2022/01/08 07:40:06;;;;;;;0.57;0.57;;;0.30;99.90;;;;;;5075789;28;20226;-68
2022/01/08 07:42:33;;;;;;;0.70;0.70;;;0.40;99.90;;;;;;5075474;28;20199;-68
2022/01/08 07:45:01;;;;;;;0.70;0.70;;;0.40;99.90;;;;;;5075516;28;20206;-68
2022/01/08 07:47:28;;;;;;;0.90;0.90;;;0.50;99.90;;;;;;5075022;28;20730;-67
2022/01/08 07:49:56;;;;;;;0.70;0.70;;;0.60;99.90;;;;;;5074879;28;20231;-67
2022/01/08 07:52:23;;;;;;;0.80;0.80;;;0.70;99.90;;;;;;5075303;28;20203;-68
2022/01/08 07:54:50;;;;;;;0.63;0.63;;;0.70;99.90;;;;;;5075200;28;20223;-68
2022/01/08 07:57:17;;;;;;;0.75;0.75;;;0.80;99.90;;;;;;5075002;28;20199;-68
2022/01/08 07:59:44;;;;;;;0.70;0.70;;;0.80;99.90;;;;;;5075079;28;20223;-68
2022/01/08 08:02:12;;;;;;;0.65;0.65;;;0.90;99.90;;;;;;5075167;28;20204;-69
2022/01/08 08:04:39;;;;;;;0.90;0.90;;;0.90;99.90;;;;;;5075266;28;20291;-69
2022/01/08 08:07:06;;;;;;;1.30;0.90;;;0.80;99.90;;;;;;5074821;28;20200;-68
2022/01/08 08:09:33;;;;;;;0.80;0.80;;;0.80;99.90;;;;;;5074600;28;20227;-69
2022/01/08 08:12:00;;;;;;;0.80;0.80;;;0.90;99.90;;;;;;5074441;28;20565;-69
2022/01/08 08:14:27;;;;;;;0.70;0.70;;;0.90;99.90;;;;;;5074748;28;20562;-70
2022/01/08 08:16:54;;;;;;;0.70;0.70;;;1.00;99.90;;;;;;5074721;28;20638;-70
2022/01/08 08:19:22;;;;;;;0.70;0.70;;;1.00;99.90;;;;;;5074900;28;20212;-70
2022/01/08 08:21:49;;;;;;;0.80;0.80;;;1.00;99.90;;;;;;5074528;28;20239;-70
2022/01/08 08:24:18;;;;;;;0.90;0.90;;;1.00;99.90;;;;;;5074498;28;20689;-70
2022/01/08 08:26:45;;;;;;;0.80;0.80;;;0.90;99.90;;;;;;5074865;28;20204;-70
2022/01/08 08:29:12;;;;;;;0.70;0.70;;;0.90;99.90;;;;;;5074593;28;20228;-70
2022/01/08 08:31:39;;;;;;;0.70;0.70;;;0.90;99.90;;;;;;5074669;28;20199;-70
2022/01/08 08:34:06;;;;;;;0.80;0.80;;;0.80;99.90;;;;;;5074659;28;20203;-70
2022/01/08 08:36:34;;;;;;;0.60;0.60;;;0.90;99.90;;;;;;5074611;28;20231;-70
2022/01/08 08:39:01;;;;;;;0.68;0.68;;;1.00;99.90;;;;;;5074248;28;20782;-70
2022/01/08 08:41:28;;;;;;;0.70;0.70;;;1.20;99.90;;;;;;5074279;28;20561;-70
2022/01/08 08:43:55;;;;;;;0.65;0.65;;;1.30;99.90;;;;;;5074123;28;20734;-70
2022/01/08 08:46:22;;;;;;;0.80;0.80;;;1.60;99.90;;;;;;5074483;28;20234;-70
2022/01/08 08:48:48;;;;;;;0.70;0.70;;;1.70;99.90;;;;;;5074383;28;20235;-70
2022/01/08 08:51:15;;;;;;;0.68;0.68;;;1.80;99.90;;;;;;5074383;28;20329;-70
2022/01/08 08:53:43;;;;;;;0.70;0.70;;;2.00;99.90;;;;;;5074262;28;20200;-70
2022/01/08 08:56:10;;;;;;;0.70;0.70;;;2.20;99.90;;;;;;5074345;28;20309;-69
2022/01/08 08:58:37;;;;;;;0.80;0.80;;;2.30;99.90;;;;;;5073552;28;20251;-69
2022/01/08 09:01:04;;;;;;;0.77;0.77;;;2.60;99.90;;;;;;5074130;28;20228;-69
2022/01/08 09:03:31;;;;;;;0.68;0.68;;;2.70;99.90;;;;;;5074041;28;20288;-69
2022/01/08 09:05:58;;;;;;;0.80;0.80;;;2.80;99.90;;;;;;5074142;28;20234;-69
2022/01/08 09:08:25;;;;;;;0.90;0.90;;;3.00;99.90;;;;;;5073911;28;20203;-69
2022/01/08 09:10:53;;;;;;;0.80;0.80;;;3.20;99.90;;;;;;5073953;28;20220;-68
2022/01/08 09:13:20;;;;;;;0.70;0.70;;;3.30;99.90;;;;;;5073943;28;20227;-69
2022/01/08 09:15:47;;;;;;;0.75;0.75;;;3.30;99.90;;;;;;5073661;28;20713;-69
2022/01/08 09:18:14;;;;;;;0.80;0.80;;;3.30;99.90;;;;;;5073669;28;20677;-69
2022/01/08 09:20:41;;;;;;;0.77;0.77;;;3.30;99.90;;;;;;5073597;28;20207;-69
2022/01/08 09:23:08;;;;;;;1.25;0.80;;;3.30;99.90;;;;;;5073726;28;20200;-69
2022/01/08 09:25:35;;;;;;;1.20;0.80;;;3.20;99.90;;;;;;5073765;28;20207;-69
2022/01/08 09:28:04;;;;;;;0.90;0.90;;;3.20;99.90;;;;;;5073848;28;20200;-69
2022/01/08 09:30:31;;;;;;;0.90;0.90;;;3.20;99.90;;;;;;5073547;28;20233;-66
2022/01/08 09:32:58;;;;;;;0.73;0.73;;;3.20;99.90;;;;;;5073739;28;20206;-66
2022/01/08 09:35:25;;;;;;;0.73;0.73;;;3.10;99.90;;;;;;5073585;28;20206;-66
2022/01/08 09:37:53;;;;;;;0.63;0.63;;;3.10;99.90;;;;;;5073665;28;20200;-67
2022/01/08 09:40:23;;;;;;;0.70;0.70;;;3.10;99.90;;;;;;5073279;28;20306;-68
2022/01/08 09:42:51;;;;;;;0.70;0.70;;;3.10;99.90;;;;;;5073518;28;20231;-68
2022/01/08 09:45:20;;;;;;;0.60;0.60;;;3.00;99.90;;;;;;5073577;28;20200;-68
2022/01/08 09:47:46;;;;;;;0.70;0.70;;;2.90;99.90;;;;;;5074096;28;20279;-67
2022/01/08 09:50:14;;;;;;;1.50;0.80;;;2.80;99.90;;;;;;5073855;28;20646;-67
2022/01/08 09:52:41;;;;;;;0.70;0.70;;;2.80;99.90;;;;;;5073721;28;20586;-66
2022/01/08 09:55:10;;;;;;;0.80;0.80;;;2.70;99.90;;;;;;5073423;28;20230;-68
2022/01/08 09:57:39;;;;;;;0.68;0.68;;;2.60;99.90;;;;;;5073973;28;20207;-68
2022/01/08 10:00:12;;;;;;;1.25;0.75;;;2.60;99.90;;;;;;5073993;28;20302;-68
2022/01/08 10:02:41;;;;;;;0.70;0.70;;;2.60;99.90;;;;;;5073888;28;20286;-69
2022/01/08 10:05:10;;;;;;;2.60;1.10;;;2.70;99.90;;;;;;5073639;28;20223;-68
2022/01/08 10:07:37;;;;;;;1.00;1.00;;;2.70;99.90;;;;;;5073523;28;20286;-68
2022/01/08 10:10:10;;;;;;;0.85;0.85;;;2.80;99.90;;;;;;5076342;28;20231;-68
2022/01/08 10:12:44;;;;;;;0.95;0.95;;;2.80;99.90;;;;;;5078011;28;20195;-69
2022/01/08 10:17:59;;;;;;;0.80;0.80;;;2.90;99.90;;;;;;5077576;28;20637;-72
2022/01/08 14:45:02;;;;;;;0.80;0.80;;;1.60;99.90;;;;;;6210291;22;20167;31
2022/01/08 14:47:38;;;;;;;1.88;0.98;;;1.60;99.90;;;;;;5031165;28;20209;-69
2022/01/08 14:50:07;;;;;;;0.70;0.70;;;1.70;99.90;;;;;;5032976;28;20292;-69
2022/01/08 14:52:35;;;;;;;0.98;0.98;;;1.70;99.90;;;;;;5032691;28;20292;-69
2022/01/08 14:55:02;;;;;;;1.08;0.80;;;1.70;99.90;;;;;;5033039;28;20221;-69
2022/01/08 14:57:29;;;;;;;0.75;0.75;;;1.70;99.90;;;;;;5036403;28;20308;-69
2022/01/08 14:59:56;;;;;;;0.70;0.70;;;1.70;99.90;;;;;;5036452;28;20722;-69
2022/01/08 15:02:23;;;;;;;0.90;0.90;;;1.70;99.90;;;;;;5036286;28;20767;-69
2022/01/08 15:04:51;;;;;;;1.02;0.85;;;1.60;99.90;;;;;;5036442;28;20304;-69
2022/01/08 15:07:18;;;;;;;1.05;1.05;;;1.50;99.90;;;;;;5036495;28;20296;-69
2022/01/08 15:09:45;;;;;;;1.40;1.02;;;1.50;99.90;;;;;;5035890;28;20646;-69
2022/01/08 15:12:13;;;;;;;1.20;1.02;;;1.40;99.90;;;;;;5039970;28;20205;-68
2022/01/08 15:14:40;;;;;;;0.80;0.80;;;1.30;99.90;;;;;;5039506;28;20197;-68
2022/01/08 15:17:07;;;;;;;0.85;0.85;;;1.30;99.90;;;;;;5040886;28;20207;-68
2022/01/08 15:19:36;;;;;;;1.00;1.00;;;1.30;99.90;;;;;;5041364;28;20215;-68
2022/01/08 15:22:04;;;;;;;0.85;0.85;;;1.20;99.90;;;;;;5040864;28;20201;-69
2022/01/08 15:24:33;;;;;;;0.90;0.90;;;1.20;99.90;;;;;;5035715;28;20213;-70
2022/01/08 15:27:01;;;;;;;0.93;0.93;;;1.10;99.90;;;;;;5036095;28;20197;-69
2022/01/08 15:29:29;;;;;;;0.90;0.90;;;1.10;99.90;;;;;;5036562;28;20633;-69
2022/01/08 15:31:56;;;;;;;1.17;1.08;;;1.00;99.90;;;;;;5036063;28;20596;-68
2022/01/08 15:34:24;;;;;;;0.90;0.90;;;1.00;99.90;;;;;;5035664;28;20651;-68
2022/01/08 15:36:52;;;;;;;0.80;0.80;;;0.90;99.90;;;;;;5035807;28;20308;-69
2022/01/08 15:39:21;;;;;;;1.17;1.17;;;0.80;99.90;;;;;;5035631;28;20736;-69
2022/01/08 15:41:49;;;;;;;1.50;1.40;;;0.80;99.90;;;;;;5038685;28;20220;-70
2022/01/08 15:44:17;;;;;;;1.73;1.40;;;0.80;99.90;;;;;;5040005;28;20308;-70
2022/01/08 15:46:45;;;;;;;1.20;1.20;;;0.80;99.90;;;;;;5037766;28;20233;-69
2022/01/08 15:49:12;;;;;;;1.13;1.13;;;0.80;99.90;;;;;;5037809;28;20208;-70
2022/01/08 15:51:39;;;;;;;1.27;1.23;;;0.70;99.90;;;;;;5035618;28;20244;-70
2022/01/08 15:54:08;;;;;;;1.10;1.10;;;0.80;99.90;;;;;;5035554;28;20289;-68
2022/01/08 15:56:39;;;;;;;1.10;1.10;;;0.80;99.90;;;;;;5035196;28;20315;-68
2022/01/08 15:59:07;;;;;;;1.30;1.20;;;0.90;99.90;;;;;;5035561;28;20190;-68
2022/01/08 16:01:35;;;;;;;1.17;1.17;;;0.90;99.90;;;;;;5035443;28;20284;-68
2022/01/08 16:04:02;;;;;;;1.00;1.00;;;0.90;99.90;;;;;;5035309;28;20293;-68
2022/01/08 16:06:29;;;;;;;1.10;1.10;;;1.00;99.90;;;;;;5035242;28;20221;-68
2022/01/08 16:08:56;;;;;;;0.93;0.93;;;1.00;99.90;;;;;;5035156;28;20288;-69
2022/01/08 16:11:23;;;;;;;1.17;1.17;;;1.00;99.90;;;;;;5035168;28;20316;-69
2022/01/08 16:13:52;;;;;;;1.50;1.40;;;1.00;99.90;;;;;;5035180;28;20300;-72
2022/01/08 16:16:20;;;;;;;1.20;1.20;;;1.00;99.90;;;;;;5035232;28;20312;-73
2022/01/08 16:18:47;;;;;;;1.38;1.25;;;1.00;99.90;;;;;;5035240;28;20194;-71
2022/01/08 16:21:14;;;;;;;1.42;1.38;;;1.00;99.90;;;;;;5035227;28;20280;-71
2022/01/08 16:23:41;;;;;;;1.67;1.58;;;1.00;99.90;;;;;;5035063;28;20288;-71
2022/01/08 16:26:08;;;;;;;2.30;1.75;;;0.90;99.90;;;;;;5034752;28;20308;-71
2022/01/08 16:28:35;;;;;;;1.40;1.30;;;0.90;99.90;;;;;;5034971;28;20300;-72
2022/01/08 16:31:03;;;;;;;2.00;1.90;;;0.80;99.90;;;;;;5034901;28;20316;-71
2022/01/08 16:33:30;;;;;;;1.92;1.83;;;0.80;99.90;;;;;;5034962;28;20277;-71
2022/01/08 16:35:57;;;;;;;1.92;1.90;;;0.70;99.90;;;;;;5034816;28;20248;-71
2022/01/08 16:38:24;;;;;;;1.55;1.55;;;0.70;99.90;;;;;;5034590;28;20734;-71
2022/01/08 16:40:51;;;;;;;1.67;1.58;;;0.60;99.90;;;;;;5034532;28;20288;-71
2022/01/08 16:43:18;;;;;;;1.90;1.80;;;0.60;99.90;;;;;;5034892;28;20277;-71
2022/01/08 16:45:46;;;;;;;1.83;1.73;;;0.60;99.90;;;;;;5034782;28;20311;-72
2022/01/08 16:48:15;;;;;;;1.70;1.70;;;0.60;99.90;;;;;;5034580;28;20648;-71
2022/01/08 16:50:44;;;;;;;1.85;1.75;;;0.60;99.90;;;;;;5034567;28;20264;-71
2022/01/08 16:53:12;;;;;;;1.98;1.80;;;0.60;99.90;;;;;;5034350;28;20205;-70
2022/01/08 16:55:39;;;;;;;1.98;1.88;;;0.60;99.90;;;;;;5034638;28;20232;-72
2022/01/08 16:58:07;;;;;;;2.40;2.00;;;0.60;99.90;;;;;;5034567;28;20297;-71
2022/01/08 17:00:34;;;;;;;1.60;1.60;;;0.60;99.90;;;;;;5034109;28;20615;-71
2022/01/08 17:03:05;;;;;;;1.30;1.30;;;0.60;99.90;;;;;;5034311;28;20289;-71
2022/01/08 17:05:34;;;;;;;1.58;1.50;;;0.60;99.90;;;;;;5034475;28;20308;-72
2022/01/08 17:08:02;;;;;;;1.88;1.77;;;0.60;99.90;;;;;;5034440;28;20295;-69
2022/01/08 17:10:29;;;;;;;1.95;1.85;;;0.60;99.90;;;;;;5034248;28;20264;-69
2022/01/08 17:12:56;;;;;;;2.22;2.03;;;0.60;99.90;;;;;;5034064;28;20744;-70
2022/01/08 17:15:23;;;;;;;2.00;1.90;;;0.60;99.90;;;;;;5034151;28;20312;-71
2022/01/08 17:17:51;;;;;;;2.40;2.30;;;0.70;99.90;;;;;;5034041;28;20632;-71
2022/01/08 17:20:18;;;;;;;1.60;1.60;;;0.70;99.90;;;;;;5034005;28;20197;-71
2022/01/08 17:22:46;;;;;;;2.47;2.13;;;0.70;99.90;;;;;;5034356;28;20248;-71
2022/01/08 17:25:13;;;;;;;1.40;1.40;;;0.70;99.90;;;;;;5034116;28;20311;-70
2022/01/08 17:27:40;;;;;;;1.67;1.67;;;0.70;99.90;;;;;;5034205;28;20292;-70
2022/01/08 17:30:09;;;;;;;1.50;1.50;;;0.80;99.90;;;;;;5034519;28;20287;-71
2022/01/08 17:32:36;;;;;;;1.55;1.45;;;0.80;99.90;;;;;;5034236;28;20311;-71
2022/01/08 17:35:04;;;;;;;1.58;1.48;;;0.70;99.90;;;;;;5034239;28;20316;-71
2022/01/08 17:37:30;;;;;;;1.50;1.50;;;0.70;99.90;;;;;;5034288;28;20225;-71
2022/01/08 17:40:00;;;;;;;1.55;1.52;;;0.70;99.90;;;;;;5033981;28;20236;-70
2022/01/08 17:42:28;;;;;;;1.40;1.40;;;0.70;99.90;;;;;;5033957;28;20338;-69
2022/01/08 17:44:55;;;;;;;2.75;2.55;;;0.60;99.90;;;;;;5033481;28;20247;-69
2022/01/08 17:47:21;;;;;;;6.55;3.88;;;0.60;99.90;;;;;;5033436;28;20213;-69
2022/01/08 17:49:48;;;;;;;6.07;3.65;;;0.50;99.90;;;;;;5033618;28;20239;-69
2022/01/08 17:52:15;;;;;;;3.97;3.58;;;0.50;99.90;;;;;;5033327;28;20669;-70
2022/01/08 17:54:43;;;;;;;3.83;3.17;;;0.50;99.90;;;;;;5033726;28;20288;-71
2022/01/08 17:57:12;;;;;;;5.22;3.78;;;0.50;99.90;;;;;;5033484;28;20216;-70
2022/01/08 17:59:40;;;;;;;4.72;3.30;;;0.50;99.90;;;;;;5034675;28;20272;-70
2022/01/08 18:02:08;;;;;;;3.80;2.83;;;0.50;99.90;;;;;;5037002;28;20219;-69
2022/01/08 18:04:35;;;;;;;2.90;2.67;;;0.50;99.90;;;;;;5034842;28;20235;-69
2022/01/08 18:07:03;;;;;;;3.33;2.85;;;0.50;99.90;;;;;;5033736;28;20333;-71
2022/01/08 18:09:29;;;;;;;2.75;2.53;;;0.50;99.90;;;;;;5033148;28;20678;-71
2022/01/08 18:11:56;;;;;;;2.90;2.70;;;0.60;99.90;;;;;;5033025;28;20659;-69
2022/01/08 18:14:25;;;;;;;2.92;2.40;;;0.60;99.90;;;;;;5033372;28;20331;-69
2022/01/08 18:16:51;;;;;;;2.55;2.35;;;0.60;99.90;;;;;;5033205;28;20312;-69
2022/01/08 18:19:18;;;;;;;1.95;1.88;;;0.60;99.90;;;;;;5033417;28;20288;-70
2022/01/08 18:21:48;;;;;;;2.42;1.70;;;0.60;99.90;;;;;;5033440;28;20220;-70
2022/01/08 18:24:15;;;;;;;2.22;2.03;;;0.60;99.90;;;;;;5033368;28;20243;-70
2022/01/08 18:26:41;;;;;;;1.70;1.70;;;0.60;99.90;;;;;;5033321;28;20308;-70
2022/01/08 18:29:08;;;;;;;1.50;1.50;;;0.60;99.90;;;;;;5033174;28;20296;-70
2022/01/08 18:31:36;;;;;;;1.85;1.80;;;0.60;99.90;;;;;;5034419;28;20217;-69
2022/01/08 18:34:03;;;;;;;2.28;2.17;;;0.60;99.90;;;;;;5037396;28;20309;-70
2022/01/08 18:36:30;;;;;;;1.58;1.48;;;0.60;99.90;;;;;;5036990;28;20790;-70
2022/01/08 18:38:57;;;;;;;1.98;1.88;;;0.70;99.90;;;;;;5037228;28;20312;-70
2022/01/08 18:41:24;;;;;;;1.73;1.70;;;0.70;99.90;;;;;;5037201;28;20285;-69
2022/01/08 18:43:51;;;;;;;1.38;1.38;;;0.70;99.90;;;;;;5037624;28;20630;-69
2022/01/08 18:46:18;;;;;;;1.63;1.63;;;0.70;99.90;;;;;;5038039;28;20293;-69
2022/01/08 18:48:46;;;;;;;1.25;1.25;;;0.70;99.90;;;;;;5038606;28;20272;-70
2022/01/08 18:51:14;;;;;;;1.40;1.40;;;0.70;99.90;;;;;;5038178;28;20221;-69
2022/01/08 18:53:41;;;;;;;1.60;1.50;;;0.80;99.90;;;;;;5038534;28;20288;-69
2022/01/08 18:56:08;;;;;;;1.33;1.33;;;0.80;99.90;;;;;;5037772;28;20795;-70
2022/01/08 18:58:35;;;;;;;1.63;1.52;;;0.80;99.90;;;;;;5037109;28;20571;-70
2022/01/08 19:01:01;;;;;;;1.10;1.10;;;0.80;99.90;;;;;;5037040;28;20742;-70
2022/01/08 19:03:28;;;;;;;1.33;1.33;;;0.80;99.90;;;;;;5037966;28;20289;-69
2022/01/08 19:05:57;;;;;;;1.65;1.55;;;0.80;99.90;;;;;;5038145;28;20259;-69
2022/01/08 19:08:23;;;;;;;1.63;1.52;;;0.90;99.90;;;;;;5037906;28;20285;-69
2022/01/08 19:10:50;;;;;;;2.38;2.17;;;0.80;99.90;;;;;;5037864;28;20292;-69
2022/01/08 19:13:17;;;;;;;2.38;2.17;;;0.80;99.90;;;;;;5037794;28;20803;-69
2022/01/08 19:15:44;;;;;;;2.75;2.10;;;0.80;99.90;;;;;;5037861;28;20316;-69
2022/01/08 19:18:13;;;;;;;2.30;2.10;;;0.80;99.90;;;;;;5036230;28;20288;-69
2022/01/08 19:20:40;;;;;;;2.60;2.40;;;0.80;99.90;;;;;;5036321;28;20259;-69
2022/01/08 19:23:08;;;;;;;2.47;2.33;;;0.80;99.90;;;;;;5036276;28;20296;-69
2022/01/08 19:25:37;;;;;;;2.20;2.10;;;0.70;99.90;;;;;;5035960;28;20642;-69
2022/01/08 19:28:06;;;;;;;2.70;2.50;;;0.70;99.90;;;;;;5036071;28;20237;-69
2022/01/08 19:30:33;;;;;;;2.47;2.25;;;0.70;99.90;;;;;;5036235;28;20648;-70
2022/01/08 19:33:00;;;;;;;2.25;2.15;;;0.60;99.90;;;;;;5036152;28;20308;-70
2022/01/08 19:35:27;;;;;;;2.45;2.35;;;0.60;99.90;;;;;;5035601;28;20684;-70
2022/01/08 19:37:54;;;;;;;2.17;2.10;;;0.70;99.90;;;;;;5035998;28;20237;-69
2022/01/08 19:40:22;;;;;;;2.20;2.10;;;0.70;99.90;;;;;;5035628;28;20288;-69
2022/01/08 19:42:49;;;;;;;1.90;1.90;;;0.70;99.90;;;;;;5035542;28;20200;-69
2022/01/08 19:45:16;;;;;;;1.58;1.45;;;0.80;99.90;;;;;;5035798;28;20308;-70
2022/01/08 19:47:43;;;;;;;1.95;1.85;;;0.80;99.90;;;;;;5035662;28;20299;-69
2022/01/08 19:50:11;;;;;;;1.58;1.58;;;0.80;99.90;;;;;;5036057;28;20284;-69
2022/01/08 19:52:39;;;;;;;1.38;1.38;;;0.90;99.90;;;;;;5035438;28;20787;-69
2022/01/08 19:55:07;;;;;;;1.75;1.65;;;0.90;99.90;;;;;;5035312;28;20311;-69
2022/01/08 19:57:35;;;;;;;1.70;1.60;;;1.00;99.90;;;;;;5035629;28;20197;-69
2022/01/08 20:00:02;;;;;;;1.95;1.85;;;1.10;99.90;;;;;;5035305;28;20292;-68
2022/01/08 20:02:29;;;;;;;1.70;1.70;;;1.10;99.90;;;;;;5035373;28;20202;-69
2022/01/08 20:04:56;;;;;;;1.70;1.70;;;1.10;99.90;;;;;;5035387;28;20307;-70
2022/01/08 20:07:26;;;;;;;1.40;1.40;;;1.10;99.90;;;;;;5035140;28;20561;-69
2022/01/08 20:09:53;;;;;;;1.85;1.75;;;1.10;99.90;;;;;;5035469;28;20205;-70
2022/01/08 20:12:20;;;;;;;1.70;1.60;;;1.10;99.90;;;;;;5035170;28;20312;-70
2022/01/08 20:14:48;;;;;;;1.60;1.50;;;1.10;99.90;;;;;;5035357;28;20232;-70
2022/01/08 20:17:15;;;;;;;1.40;1.40;;;1.10;99.90;;;;;;5034911;28;20228;-69
2022/01/08 20:19:43;;;;;;;1.50;1.45;;;1.20;99.90;;;;;;5035148;28;20197;-69
2022/01/08 20:22:10;;;;;;;1.67;1.58;;;1.10;99.90;;;;;;5034985;28;20295;-69
2022/01/08 20:24:37;;;;;;;1.35;1.35;;;1.10;99.90;;;;;;5035050;28;20288;-69
2022/01/08 20:27:05;;;;;;;1.58;1.45;;;1.10;99.90;;;;;;5035125;28;20239;-69
2022/01/08 20:29:31;;;;;;;1.33;1.27;;;1.10;99.90;;;;;;5035009;28;20280;-69
2022/01/08 20:32:00;;;;;;;1.25;1.25;;;1.10;99.90;;;;;;5034908;28;20311;-69
2022/01/08 20:34:29;;;;;;;1.30;1.30;;;1.10;99.90;;;;;;5034950;28;20208;-69
2022/01/08 20:36:56;;;;;;;1.40;1.30;;;1.10;99.90;;;;;;5034863;28;20225;-69
2022/01/08 20:39:23;;;;;;;1.63;1.52;;;1.10;99.90;;;;;;5034827;28;20292;-69
2022/01/08 20:41:50;;;;;;;1.60;1.50;;;1.10;99.90;;;;;;5034790;28;20233;-69
2022/01/08 20:44:17;;;;;;;1.83;1.73;;;1.10;99.90;;;;;;5034665;28;20640;-69
2022/01/08 20:46:44;;;;;;;1.60;1.60;;;1.00;99.90;;;;;;5034279;28;20320;-69
2022/01/08 20:49:12;;;;;;;1.63;1.50;;;1.00;99.90;;;;;;5034490;28;20640;-68
2022/01/08 20:51:39;;;;;;;1.50;1.50;;;1.00;99.90;;;;;;5034464;28;20209;-68
2022/01/08 20:54:06;;;;;;;1.83;1.73;;;1.00;99.90;;;;;;5033591;28;20292;-70
2022/01/08 20:56:33;;;;;;;1.60;1.60;;;1.00;99.90;;;;;;5034387;28;20253;-69
2022/01/08 20:59:00;;;;;;;1.80;1.70;;;1.00;99.90;;;;;;5090180;22;20315;-71
2022/01/08 21:01:27;;;;;;;1.88;1.77;;;1.00;99.90;;;;;;5074268;28;20291;-71
2022/01/08 21:03:54;;;;;;;1.90;1.77;;;1.00;99.90;;;;;;5074132;28;20287;-70
2022/01/08 21:06:22;;;;;;;2.00;1.77;;;1.00;99.90;;;;;;5074081;28;20288;-69
2022/01/08 21:08:49;;;;;;;1.60;1.60;;;1.00;99.90;;;;;;5073807;28;20666;-72
2022/01/08 21:11:16;;;;;;;3.28;2.63;;;1.00;99.90;;;;;;5074105;28;20307;-72
2022/01/08 21:13:43;;;;;;;1.92;1.83;;;1.00;99.90;;;;;;5074460;28;20307;-72
2022/01/08 21:16:10;;;;;;;2.30;2.13;;;1.00;99.90;;;;;;5074106;28;20295;-72
2022/01/08 21:18:37;;;;;;;1.90;1.80;;;1.10;99.90;;;;;;5073769;28;20311;-73
2022/01/08 21:21:04;;;;;;;2.13;2.03;;;1.10;99.90;;;;;;5073881;28;20235;-72
2022/01/08 21:23:33;;;;;;;1.98;1.88;;;1.10;99.90;;;;;;5073963;28;20256;-72
2022/01/08 21:25:59;;;;;;;2.83;2.63;;;1.20;99.90;;;;;;5073797;28;20282;-72
2022/01/08 21:28:26;;;;;;;2.63;2.42;;;1.20;99.90;;;;;;5073852;28;20247;-72
2022/01/08 21:30:53;;;;;;;1.80;1.73;;;1.10;99.90;;;;;;5073676;28;20235;-72
2022/01/08 21:33:20;;;;;;;1.85;1.75;;;1.20;99.90;;;;;;5074471;28;20298;-73
2022/01/08 21:35:50;;;;;;;1.67;1.67;;;1.10;99.90;;;;;;5073963;28;20621;-73
2022/01/08 21:38:17;;;;;;;1.40;1.40;;;1.10;99.90;;;;;;5073792;28;20228;-73
2022/01/08 21:40:45;;;;;;;1.27;1.20;;;1.20;99.90;;;;;;5073944;28;20234;-74
2022/01/08 21:43:12;;;;;;;1.30;1.30;;;1.20;99.90;;;;;;5073394;28;20283;-74
2022/01/08 21:45:40;;;;;;;1.30;1.30;;;1.20;99.90;;;;;;5073464;28;20211;-73
2022/01/08 21:48:09;;;;;;;1.15;1.15;;;1.20;99.90;;;;;;5073967;28;20331;-73
2022/01/08 21:50:37;;;;;;;2.17;1.50;;;1.20;99.90;;;;;;5074258;28;20279;-72
2022/01/08 21:53:04;;;;;;;1.10;1.10;;;1.20;99.90;;;;;;5073566;28;20302;-72
2022/01/08 21:55:31;;;;;;;1.40;1.30;;;1.30;99.90;;;;;;5073566;28;20294;-73
2022/01/08 21:58:00;;;;;;;1.70;1.60;;;1.30;99.90;;;;;;5073215;28;20785;-73
2022/01/08 22:00:27;;;;;;;1.00;1.00;;;1.40;99.90;;;;;;5073473;28;20385;-72
2022/01/08 22:02:53;;;;;;;1.13;1.13;;;1.40;99.90;;;;;;5073570;28;20283;-72
2022/01/08 22:05:20;;;;;;;1.30;1.30;;;1.40;99.90;;;;;;5074744;28;20290;-72
2022/01/08 22:07:48;;;;;;;0.98;0.98;;;1.40;99.90;;;;;;5077843;28;20311;-71
2022/01/08 22:10:16;;;;;;;1.02;1.02;;;1.40;99.90;;;;;;5077411;28;20644;-72
2022/01/08 22:12:43;;;;;;;1.20;1.10;;;1.30;99.90;;;;;;5077700;28;20307;-72
2022/01/08 22:15:12;;;;;;;0.93;0.93;;;1.30;99.90;;;;;;5077719;28;20310;-72
2022/01/08 22:17:40;;;;;;;1.23;1.23;;;1.30;99.90;;;;;;5077674;28;20318;-73
2022/01/08 22:20:08;;;;;;;1.45;1.45;;;1.20;99.90;;;;;;5077207;28;20199;-72
2022/01/08 22:22:36;;;;;;;1.20;1.20;;;1.20;99.90;;;;;;5077220;28;20195;-71
2022/01/08 22:25:04;;;;;;;1.33;1.33;;;1.20;99.90;;;;;;5078124;28;20734;-73
2022/01/08 22:27:31;;;;;;;1.63;1.63;;;1.20;99.90;;;;;;5077347;28;20252;-69
2022/01/08 22:29:57;;;;;;;1.52;1.42;;;1.20;99.90;;;;;;5077183;28;20295;-70
2022/01/08 22:32:26;;;;;;;1.48;1.38;;;1.20;99.90;;;;;;5076958;28;20222;-70